sensor_id;sensor_type;location;lat;lon;timestamp;temperature;humidity
18506;DHT22;9382;53.242;10.438;2022-09-25T00:00:51;12.90;99.90
18506;DHT22;9382;53.242;10.438;2022-09-25T00:03:21;12.80;99.90
18506;DHT22;9382;53.242;10.438;2022-09-25T00:05:48;12.90;99.90
18506;DHT22;9382;53.242;10.438;2022-09-25T00:08:16;12.90;99.90
18506;DHT22;9382;53.242;10.438;2022-09-25T00:10:45;12.90;99.90
18506;DHT22;9382;53.242;10.438;2022-09-25T00:13:13;12.90;99.90
18506;DHT22;9382;53.242;10.438;2022-09-25T00:15:45;12.90;99.90
18506;DHT22;9382;53.242;10.438;2022-09-25T00:18:12;12.90;99.90
18506;DHT22;9382;53.242;10.438;2022-09-25T00:20:40;12.90;99.90
18506;DHT22;9382;53.242;10.438;2022-09-25T00:23:06;12.90;99.90
18506;DHT22;9382;53.242;10.438;2022-09-25T00:25:33;12.90;99.90
18506;DHT22;9382;53.242;10.438;2022-09-25T00:28:01;12.90;99.90
18506;DHT22;9382;53.242;10.438;2022-09-25T00:30:28;12.90;99.90
18506;DHT22;9382;53.242;10.438;2022-09-25T00:32:54;12.90;99.90
18506;DHT22;9382;53.242;10.438;2022-09-25T00:35:21;12.90;99.90
18506;DHT22;9382;53.242;10.438;2022-09-25T00:37:49;12.90;99.90
18506;DHT22;9382;53.242;10.438;2022-09-25T00:40:16;12.90;99.90
18506;DHT22;9382;53.242;10.438;2022-09-25T00:42:44;12.90;99.90
18506;DHT22;9382;53.242;10.438;2022-09-25T00:45:15;12.90;99.90
18506;DHT22;9382;53.242;10.438;2022-09-25T00:47:54;12.90;99.90
18506;DHT22;9382;53.242;10.438;2022-09-25T00:50:28;12.90;99.90
18506;DHT22;9382;53.242;10.438;2022-09-25T00:53:02;12.90;99.90
18506;DHT22;9382;53.242;10.438;2022-09-25T00:55:31;12.90;99.90
18506;DHT22;9382;53.242;10.438;2022-09-25T00:57:59;12.90;99.90
18506;DHT22;9382;53.242;10.438;2022-09-25T01:00:27;12.90;99.90
18506;DHT22;9382;53.242;10.438;2022-09-25T01:02:54;12.90;99.90
18506;DHT22;9382;53.242;10.438;2022-09-25T01:05:25;12.90;99.90
18506;DHT22;9382;53.242;10.438;2022-09-25T01:07:52;12.90;99.90
18506;DHT22;9382;53.242;10.438;2022-09-25T01:10:22;12.90;99.90
18506;DHT22;9382;53.242;10.438;2022-09-25T01:12:50;12.90;99.90
18506;DHT22;9382;53.242;10.438;2022-09-25T01:15:19;12.90;99.90
18506;DHT22;9382;53.242;10.438;2022-09-25T01:17:57;12.90;99.90
18506;DHT22;9382;53.242;10.438;2022-09-25T01:20:39;12.80;99.90
18506;DHT22;9382;53.242;10.438;2022-09-25T01:23:16;12.80;99.90
18506;DHT22;9382;53.242;10.438;2022-09-25T01:26:03;12.90;99.90
18506;DHT22;9382;53.242;10.438;2022-09-25T01:28:49;12.90;99.90
18506;DHT22;9382;53.242;10.438;2022-09-25T01:31:26;12.90;99.90
18506;DHT22;9382;53.242;10.438;2022-09-25T01:33:59;12.90;99.90
18506;DHT22;9382;53.242;10.438;2022-09-25T01:36:29;12.90;99.90
18506;DHT22;9382;53.242;10.438;2022-09-25T01:39:06;12.80;99.90
18506;DHT22;9382;53.242;10.438;2022-09-25T01:41:39;12.90;99.90
18506;DHT22;9382;53.242;10.438;2022-09-25T01:44:12;12.90;99.90
18506;DHT22;9382;53.242;10.438;2022-09-25T01:46:42;12.90;99.90
18506;DHT22;9382;53.242;10.438;2022-09-25T01:49:18;12.90;99.90
18506;DHT22;9382;53.242;10.438;2022-09-25T01:51:49;12.90;99.90
18506;DHT22;9382;53.242;10.438;2022-09-25T01:54:19;12.90;99.90
18506;DHT22;9382;53.242;10.438;2022-09-25T01:56:50;12.90;99.90
18506;DHT22;9382;53.242;10.438;2022-09-25T01:59:24;12.90;99.90
18506;DHT22;9382;53.242;10.438;2022-09-25T02:01:54;12.90;99.90
18506;DHT22;9382;53.242;10.438;2022-09-25T02:04:25;12.90;99.90
18506;DHT22;9382;53.242;10.438;2022-09-25T02:06:56;12.90;99.90
18506;DHT22;9382;53.242;10.438;2022-09-25T02:09:28;12.90;99.90
18506;DHT22;9382;53.242;10.438;2022-09-25T02:12:01;12.90;99.90
18506;DHT22;9382;53.242;10.438;2022-09-25T02:14:34;12.90;99.90
18506;DHT22;9382;53.242;10.438;2022-09-25T02:17:05;12.90;99.90
18506;DHT22;9382;53.242;10.438;2022-09-25T02:19:34;12.80;99.90
18506;DHT22;9382;53.242;10.438;2022-09-25T02:22:21;12.90;99.90
18506;DHT22;9382;53.242;10.438;2022-09-25T02:24:50;13.00;99.90
18506;DHT22;9382;53.242;10.438;2022-09-25T02:27:21;13.00;99.90
18506;DHT22;9382;53.242;10.438;2022-09-25T02:29:50;12.90;99.90
18506;DHT22;9382;53.242;10.438;2022-09-25T02:32:19;12.90;99.90
18506;DHT22;9382;53.242;10.438;2022-09-25T02:34:47;12.90;99.90
18506;DHT22;9382;53.242;10.438;2022-09-25T02:37:15;12.90;99.90
18506;DHT22;9382;53.242;10.438;2022-09-25T02:39:44;12.90;99.90
18506;DHT22;9382;53.242;10.438;2022-09-25T02:42:19;12.90;99.90
18506;DHT22;9382;53.242;10.438;2022-09-25T02:45:01;12.90;99.90
18506;DHT22;9382;53.242;10.438;2022-09-25T02:47:34;12.80;99.90
18506;DHT22;9382;53.242;10.438;2022-09-25T02:50:13;12.80;99.90
18506;DHT22;9382;53.242;10.438;2022-09-25T02:52:46;12.80;99.90
18506;DHT22;9382;53.242;10.438;2022-09-25T02:55:20;12.80;99.90
18506;DHT22;9382;53.242;10.438;2022-09-25T02:57:52;12.80;99.90
18506;DHT22;9382;53.242;10.438;2022-09-25T03:00:21;12.80;99.90
18506;DHT22;9382;53.242;10.438;2022-09-25T03:02:49;12.80;99.90
18506;DHT22;9382;53.242;10.438;2022-09-25T03:05:18;12.90;99.90
18506;DHT22;9382;53.242;10.438;2022-09-25T03:07:45;12.80;99.90
18506;DHT22;9382;53.242;10.438;2022-09-25T03:10:31;12.80;99.90
18506;DHT22;9382;53.242;10.438;2022-09-25T03:13:15;12.80;99.90
18506;DHT22;9382;53.242;10.438;2022-09-25T03:15:45;12.80;99.90
18506;DHT22;9382;53.242;10.438;2022-09-25T03:18:13;12.80;99.90
18506;DHT22;9382;53.242;10.438;2022-09-25T03:20:41;12.80;99.90
18506;DHT22;9382;53.242;10.438;2022-09-25T03:23:07;12.80;99.90
18506;DHT22;9382;53.242;10.438;2022-09-25T03:25:34;12.90;99.90
18506;DHT22;9382;53.242;10.438;2022-09-25T03:28:01;12.90;99.90
18506;DHT22;9382;53.242;10.438;2022-09-25T03:30:28;12.90;99.90
18506;DHT22;9382;53.242;10.438;2022-09-25T03:32:56;12.90;99.90
18506;DHT22;9382;53.242;10.438;2022-09-25T03:35:23;12.80;99.90
18506;DHT22;9382;53.242;10.438;2022-09-25T03:37:50;12.80;99.90
18506;DHT22;9382;53.242;10.438;2022-09-25T03:40:17;12.80;99.90
18506;DHT22;9382;53.242;10.438;2022-09-25T03:42:43;12.80;99.90
18506;DHT22;9382;53.242;10.438;2022-09-25T03:45:10;12.80;99.90
18506;DHT22;9382;53.242;10.438;2022-09-25T03:47:37;12.90;99.90
18506;DHT22;9382;53.242;10.438;2022-09-25T03:50:06;12.90;99.90
18506;DHT22;9382;53.242;10.438;2022-09-25T03:52:33;12.90;99.90
18506;DHT22;9382;53.242;10.438;2022-09-25T03:55:00;12.90;99.90
18506;DHT22;9382;53.242;10.438;2022-09-25T03:57:27;12.90;99.90
18506;DHT22;9382;53.242;10.438;2022-09-25T03:59:53;12.90;99.90
18506;DHT22;9382;53.242;10.438;2022-09-25T04:02:20;12.80;99.90
18506;DHT22;9382;53.242;10.438;2022-09-25T04:04:47;12.80;99.90
18506;DHT22;9382;53.242;10.438;2022-09-25T04:07:16;12.90;99.90
18506;DHT22;9382;53.242;10.438;2022-09-25T04:09:43;12.90;99.90
18506;DHT22;9382;53.242;10.438;2022-09-25T04:12:09;12.90;99.90
18506;DHT22;9382;53.242;10.438;2022-09-25T04:14:36;12.90;99.90
18506;DHT22;9382;53.242;10.438;2022-09-25T04:17:03;12.80;99.90
18506;DHT22;9382;53.242;10.438;2022-09-25T04:19:29;12.80;99.90
18506;DHT22;9382;53.242;10.438;2022-09-25T04:21:56;12.80;99.90
18506;DHT22;9382;53.242;10.438;2022-09-25T04:24:24;12.80;99.90
18506;DHT22;9382;53.242;10.438;2022-09-25T04:27:08;12.80;99.90
18506;DHT22;9382;53.242;10.438;2022-09-25T04:29:35;12.80;99.90
18506;DHT22;9382;53.242;10.438;2022-09-25T04:32:02;12.80;99.90
18506;DHT22;9382;53.242;10.438;2022-09-25T04:34:46;12.80;99.90
18506;DHT22;9382;53.242;10.438;2022-09-25T04:37:13;12.80;99.90
18506;DHT22;9382;53.242;10.438;2022-09-25T04:39:41;12.80;99.90
18506;DHT22;9382;53.242;10.438;2022-09-25T04:42:08;12.70;99.90
18506;DHT22;9382;53.242;10.438;2022-09-25T04:44:35;12.70;99.90
18506;DHT22;9382;53.242;10.438;2022-09-25T04:47:01;12.70;99.90
18506;DHT22;9382;53.242;10.438;2022-09-25T04:49:28;12.80;99.90
18506;DHT22;9382;53.242;10.438;2022-09-25T04:51:55;12.70;99.90
18506;DHT22;9382;53.242;10.438;2022-09-25T04:54:22;12.70;99.90
18506;DHT22;9382;53.242;10.438;2022-09-25T04:56:50;12.70;99.90
18506;DHT22;9382;53.242;10.438;2022-09-25T04:59:18;12.80;99.90
18506;DHT22;9382;53.242;10.438;2022-09-25T05:01:46;12.80;99.90
18506;DHT22;9382;53.242;10.438;2022-09-25T05:04:13;12.70;99.90
18506;DHT22;9382;53.242;10.438;2022-09-25T05:06:41;12.70;99.90
18506;DHT22;9382;53.242;10.438;2022-09-25T05:09:07;12.70;99.90
18506;DHT22;9382;53.242;10.438;2022-09-25T05:11:34;12.70;99.90
18506;DHT22;9382;53.242;10.438;2022-09-25T05:14:02;12.80;99.90
18506;DHT22;9382;53.242;10.438;2022-09-25T05:16:29;12.80;99.90
18506;DHT22;9382;53.242;10.438;2022-09-25T05:18:56;12.70;99.90
18506;DHT22;9382;53.242;10.438;2022-09-25T05:21:24;12.70;99.90
18506;DHT22;9382;53.242;10.438;2022-09-25T05:23:51;12.70;99.90
18506;DHT22;9382;53.242;10.438;2022-09-25T05:26:17;12.70;99.90
18506;DHT22;9382;53.242;10.438;2022-09-25T05:28:48;12.80;99.90
18506;DHT22;9382;53.242;10.438;2022-09-25T05:31:17;12.80;99.90
18506;DHT22;9382;53.242;10.438;2022-09-25T05:33:43;12.70;99.90
18506;DHT22;9382;53.242;10.438;2022-09-25T05:36:10;12.70;99.90
18506;DHT22;9382;53.242;10.438;2022-09-25T05:38:39;12.70;99.90
18506;DHT22;9382;53.242;10.438;2022-09-25T05:41:07;12.70;99.90
18506;DHT22;9382;53.242;10.438;2022-09-25T05:43:38;12.80;99.90
18506;DHT22;9382;53.242;10.438;2022-09-25T05:46:05;12.80;99.90
18506;DHT22;9382;53.242;10.438;2022-09-25T05:48:34;12.80;99.90
18506;DHT22;9382;53.242;10.438;2022-09-25T05:51:00;12.80;99.90
18506;DHT22;9382;53.242;10.438;2022-09-25T05:53:28;12.80;99.90
18506;DHT22;9382;53.242;10.438;2022-09-25T05:55:57;12.80;99.90
18506;DHT22;9382;53.242;10.438;2022-09-25T05:58:24;12.80;99.90
18506;DHT22;9382;53.242;10.438;2022-09-25T06:00:51;12.90;99.90
18506;DHT22;9382;53.242;10.438;2022-09-25T06:03:20;12.90;99.90
18506;DHT22;9382;53.242;10.438;2022-09-25T06:05:48;12.90;99.90
18506;DHT22;9382;53.242;10.438;2022-09-25T06:08:14;13.00;99.90
18506;DHT22;9382;53.242;10.438;2022-09-25T06:10:50;13.00;99.90
18506;DHT22;9382;53.242;10.438;2022-09-25T06:13:18;13.00;99.90
18506;DHT22;9382;53.242;10.438;2022-09-25T06:15:45;13.10;99.90
18506;DHT22;9382;53.242;10.438;2022-09-25T06:18:15;13.10;99.90
18506;DHT22;9382;53.242;10.438;2022-09-25T06:20:41;13.00;99.90
18506;DHT22;9382;53.242;10.438;2022-09-25T06:23:10;13.00;99.90
18506;DHT22;9382;53.242;10.438;2022-09-25T06:25:36;13.10;99.90
18506;DHT22;9382;53.242;10.438;2022-09-25T06:28:03;13.10;99.90
18506;DHT22;9382;53.242;10.438;2022-09-25T06:30:33;13.20;99.90
18506;DHT22;9382;53.242;10.438;2022-09-25T06:33:00;13.20;99.90
18506;DHT22;9382;53.242;10.438;2022-09-25T06:35:29;13.20;99.90
18506;DHT22;9382;53.242;10.438;2022-09-25T06:37:56;13.10;99.90
18506;DHT22;9382;53.242;10.438;2022-09-25T06:40:25;13.20;99.90
18506;DHT22;9382;53.242;10.438;2022-09-25T06:42:56;13.20;99.90
18506;DHT22;9382;53.242;10.438;2022-09-25T06:45:23;13.20;99.90
18506;DHT22;9382;53.242;10.438;2022-09-25T06:47:51;13.20;99.90
18506;DHT22;9382;53.242;10.438;2022-09-25T06:50:23;13.20;99.90
18506;DHT22;9382;53.242;10.438;2022-09-25T06:52:50;13.20;99.90
18506;DHT22;9382;53.242;10.438;2022-09-25T06:55:17;13.20;99.90
18506;DHT22;9382;53.242;10.438;2022-09-25T06:57:46;13.20;99.90
18506;DHT22;9382;53.242;10.438;2022-09-25T07:00:13;13.20;99.90
18506;DHT22;9382;53.242;10.438;2022-09-25T07:02:40;13.30;99.90
18506;DHT22;9382;53.242;10.438;2022-09-25T07:05:24;13.30;99.90
18506;DHT22;9382;53.242;10.438;2022-09-25T07:07:51;13.30;99.90
18506;DHT22;9382;53.242;10.438;2022-09-25T07:10:17;13.30;99.90
18506;DHT22;9382;53.242;10.438;2022-09-25T07:12:45;13.30;99.90
18506;DHT22;9382;53.242;10.438;2022-09-25T07:15:12;13.30;99.90
18506;DHT22;9382;53.242;10.438;2022-09-25T07:17:40;13.30;99.90
18506;DHT22;9382;53.242;10.438;2022-09-25T07:20:08;13.30;99.90
18506;DHT22;9382;53.242;10.438;2022-09-25T07:22:37;13.30;99.90
18506;DHT22;9382;53.242;10.438;2022-09-25T07:25:04;13.30;99.90
18506;DHT22;9382;53.242;10.438;2022-09-25T07:27:31;13.30;99.90
18506;DHT22;9382;53.242;10.438;2022-09-25T07:29:59;13.40;99.90
18506;DHT22;9382;53.242;10.438;2022-09-25T07:32:26;13.40;99.90
18506;DHT22;9382;53.242;10.438;2022-09-25T07:34:53;13.50;99.90
18506;DHT22;9382;53.242;10.438;2022-09-25T07:37:20;13.60;99.90
18506;DHT22;9382;53.242;10.438;2022-09-25T07:39:47;13.50;99.90
18506;DHT22;9382;53.242;10.438;2022-09-25T07:42:14;13.60;99.90
18506;DHT22;9382;53.242;10.438;2022-09-25T07:44:42;13.70;99.90
18506;DHT22;9382;53.242;10.438;2022-09-25T07:47:10;13.80;99.90
18506;DHT22;9382;53.242;10.438;2022-09-25T07:49:39;13.80;99.90
18506;DHT22;9382;53.242;10.438;2022-09-25T07:52:06;13.80;99.90
18506;DHT22;9382;53.242;10.438;2022-09-25T07:54:33;13.90;99.90
18506;DHT22;9382;53.242;10.438;2022-09-25T07:57:00;14.00;99.90
18506;DHT22;9382;53.242;10.438;2022-09-25T07:59:27;14.00;99.90
18506;DHT22;9382;53.242;10.438;2022-09-25T08:01:53;13.90;99.90
18506;DHT22;9382;53.242;10.438;2022-09-25T08:04:23;13.90;99.90
18506;DHT22;9382;53.242;10.438;2022-09-25T08:06:50;13.90;99.90
18506;DHT22;9382;53.242;10.438;2022-09-25T08:09:17;13.90;99.90
18506;DHT22;9382;53.242;10.438;2022-09-25T08:11:44;14.00;99.90
18506;DHT22;9382;53.242;10.438;2022-09-25T08:14:11;14.00;99.90
18506;DHT22;9382;53.242;10.438;2022-09-25T08:16:39;14.10;99.90
18506;DHT22;9382;53.242;10.438;2022-09-25T08:19:05;14.10;99.90
18506;DHT22;9382;53.242;10.438;2022-09-25T08:21:33;14.10;99.90
18506;DHT22;9382;53.242;10.438;2022-09-25T08:24:01;14.10;99.90
18506;DHT22;9382;53.242;10.438;2022-09-25T08:26:28;14.10;99.90
18506;DHT22;9382;53.242;10.438;2022-09-25T08:28:56;14.20;99.90
18506;DHT22;9382;53.242;10.438;2022-09-25T08:31:24;14.10;99.90
18506;DHT22;9382;53.242;10.438;2022-09-25T08:33:51;14.10;99.90
18506;DHT22;9382;53.242;10.438;2022-09-25T08:36:19;14.10;99.90
18506;DHT22;9382;53.242;10.438;2022-09-25T08:38:47;14.20;99.90
18506;DHT22;9382;53.242;10.438;2022-09-25T08:41:16;14.30;99.90
18506;DHT22;9382;53.242;10.438;2022-09-25T08:43:49;14.30;99.90
18506;DHT22;9382;53.242;10.438;2022-09-25T08:46:33;14.30;99.90
18506;DHT22;9382;53.242;10.438;2022-09-25T08:49:20;14.30;99.90
18506;DHT22;9382;53.242;10.438;2022-09-25T08:51:52;14.40;99.90
18506;DHT22;9382;53.242;10.438;2022-09-25T08:54:25;14.50;99.90
18506;DHT22;9382;53.242;10.438;2022-09-25T08:56:55;14.60;99.90
18506;DHT22;9382;53.242;10.438;2022-09-25T08:59:26;14.70;99.90
18506;DHT22;9382;53.242;10.438;2022-09-25T09:01:56;14.80;99.90
18506;DHT22;9382;53.242;10.438;2022-09-25T09:04:26;14.90;99.90
18506;DHT22;9382;53.242;10.438;2022-09-25T09:06:59;14.90;99.90
18506;DHT22;9382;53.242;10.438;2022-09-25T09:09:33;15.00;99.90
18506;DHT22;9382;53.242;10.438;2022-09-25T09:12:05;15.00;99.90
18506;DHT22;9382;53.242;10.438;2022-09-25T09:14:40;15.10;99.90
18506;DHT22;9382;53.242;10.438;2022-09-25T09:17:14;15.10;99.90
18506;DHT22;9382;53.242;10.438;2022-09-25T09:19:47;15.20;99.90
18506;DHT22;9382;53.242;10.438;2022-09-25T09:22:19;15.20;99.90
18506;DHT22;9382;53.242;10.438;2022-09-25T09:24:56;15.30;99.90
18506;DHT22;9382;53.242;10.438;2022-09-25T09:27:40;15.40;99.90
18506;DHT22;9382;53.242;10.438;2022-09-25T09:30:14;15.40;99.90
18506;DHT22;9382;53.242;10.438;2022-09-25T09:33:11;15.40;99.90
18506;DHT22;9382;53.242;10.438;2022-09-25T09:35:45;15.30;99.90
18506;DHT22;9382;53.242;10.438;2022-09-25T09:38:22;15.40;99.90
18506;DHT22;9382;53.242;10.438;2022-09-25T09:41:06;15.40;99.90
18506;DHT22;9382;53.242;10.438;2022-09-25T09:43:47;15.40;99.90
18506;DHT22;9382;53.242;10.438;2022-09-25T09:46:24;15.30;99.90
18506;DHT22;9382;53.242;10.438;2022-09-25T09:49:02;15.30;99.90
18506;DHT22;9382;53.242;10.438;2022-09-25T09:51:34;15.20;99.90
18506;DHT22;9382;53.242;10.438;2022-09-25T09:54:07;15.10;99.90
18506;DHT22;9382;53.242;10.438;2022-09-25T09:56:40;15.00;99.90
18506;DHT22;9382;53.242;10.438;2022-09-25T09:59:13;15.10;99.90
18506;DHT22;9382;53.242;10.438;2022-09-25T10:01:41;15.10;99.90
18506;DHT22;9382;53.242;10.438;2022-09-25T10:04:11;15.20;99.90
18506;DHT22;9382;53.242;10.438;2022-09-25T10:06:44;15.20;99.90
18506;DHT22;9382;53.242;10.438;2022-09-25T10:09:14;15.10;99.90
18506;DHT22;9382;53.242;10.438;2022-09-25T10:11:43;15.00;99.90
18506;DHT22;9382;53.242;10.438;2022-09-25T10:14:15;14.90;99.90
18506;DHT22;9382;53.242;10.438;2022-09-25T10:16:46;15.00;99.90
18506;DHT22;9382;53.242;10.438;2022-09-25T10:19:16;15.20;99.90
18506;DHT22;9382;53.242;10.438;2022-09-25T10:21:46;15.20;99.90
18506;DHT22;9382;53.242;10.438;2022-09-25T10:27:21;15.40;99.90
18506;DHT22;9382;53.242;10.438;2022-09-25T10:30:05;15.40;99.90
18506;DHT22;9382;53.242;10.438;2022-09-25T10:32:32;15.40;99.90
18506;DHT22;9382;53.242;10.438;2022-09-25T10:35:00;15.30;99.90
18506;DHT22;9382;53.242;10.438;2022-09-25T10:37:31;15.40;99.90
18506;DHT22;9382;53.242;10.438;2022-09-25T10:40:02;15.40;99.90
18506;DHT22;9382;53.242;10.438;2022-09-25T10:42:36;15.50;99.90
18506;DHT22;9382;53.242;10.438;2022-09-25T10:45:29;15.40;99.90
18506;DHT22;9382;53.242;10.438;2022-09-25T10:47:56;15.50;99.90
18506;DHT22;9382;53.242;10.438;2022-09-25T10:50:40;15.60;99.90
18506;DHT22;9382;53.242;10.438;2022-09-25T10:53:23;15.70;99.90
18506;DHT22;9382;53.242;10.438;2022-09-25T10:56:01;15.70;99.90
18506;DHT22;9382;53.242;10.438;2022-09-25T10:58:34;15.80;99.90
18506;DHT22;9382;53.242;10.438;2022-09-25T11:01:02;15.80;99.90
18506;DHT22;9382;53.242;10.438;2022-09-25T11:03:32;15.80;99.90
18506;DHT22;9382;53.242;10.438;2022-09-25T11:06:01;15.80;99.90
18506;DHT22;9382;53.242;10.438;2022-09-25T11:08:32;15.70;99.90
18506;DHT22;9382;53.242;10.438;2022-09-25T11:11:01;15.60;99.90
18506;DHT22;9382;53.242;10.438;2022-09-25T11:13:33;15.60;99.90
18506;DHT22;9382;53.242;10.438;2022-09-25T11:16:05;15.60;99.90
18506;DHT22;9382;53.242;10.438;2022-09-25T11:18:38;15.70;99.90
18506;DHT22;9382;53.242;10.438;2022-09-25T11:21:17;15.70;99.90
18506;DHT22;9382;53.242;10.438;2022-09-25T11:24:03;15.70;99.90
18506;DHT22;9382;53.242;10.438;2022-09-25T11:26:34;15.60;99.90
18506;DHT22;9382;53.242;10.438;2022-09-25T11:29:10;15.50;99.90
18506;DHT22;9382;53.242;10.438;2022-09-25T11:31:41;15.40;99.90
18506;DHT22;9382;53.242;10.438;2022-09-25T11:34:15;15.30;99.90
18506;DHT22;9382;53.242;10.438;2022-09-25T11:36:47;15.20;99.90
18506;DHT22;9382;53.242;10.438;2022-09-25T11:39:19;15.00;99.90
18506;DHT22;9382;53.242;10.438;2022-09-25T11:42:10;15.00;99.90
18506;DHT22;9382;53.242;10.438;2022-09-25T11:44:46;14.80;99.90
18506;DHT22;9382;53.242;10.438;2022-09-25T11:47:25;14.80;99.90
18506;DHT22;9382;53.242;10.438;2022-09-25T11:49:55;14.70;99.90
18506;DHT22;9382;53.242;10.438;2022-09-25T11:52:35;14.60;99.90
18506;DHT22;9382;53.242;10.438;2022-09-25T11:55:37;14.50;99.90
18506;DHT22;9382;53.242;10.438;2022-09-25T11:58:16;14.30;99.90
18506;DHT22;9382;53.242;10.438;2022-09-25T12:00:53;14.20;99.90
18506;DHT22;9382;53.242;10.438;2022-09-25T12:03:36;14.10;99.90
18506;DHT22;9382;53.242;10.438;2022-09-25T12:06:20;14.10;99.90
18506;DHT22;9382;53.242;10.438;2022-09-25T12:09:04;14.10;99.90
18506;DHT22;9382;53.242;10.438;2022-09-25T12:11:41;14.10;99.90
18506;DHT22;9382;53.242;10.438;2022-09-25T12:14:14;14.10;99.90
18506;DHT22;9382;53.242;10.438;2022-09-25T12:16:47;14.10;99.90
18506;DHT22;9382;53.242;10.438;2022-09-25T12:19:32;14.10;99.90
18506;DHT22;9382;53.242;10.438;2022-09-25T12:22:05;14.20;99.90
18506;DHT22;9382;53.242;10.438;2022-09-25T12:24:48;14.20;99.90
18506;DHT22;9382;53.242;10.438;2022-09-25T12:27:22;14.30;99.90
18506;DHT22;9382;53.242;10.438;2022-09-25T12:30:02;14.10;99.90
18506;DHT22;9382;53.242;10.438;2022-09-25T12:32:54;14.00;99.90
18506;DHT22;9382;53.242;10.438;2022-09-25T12:35:40;14.00;99.90
18506;DHT22;9382;53.242;10.438;2022-09-25T12:38:17;13.80;99.90
18506;DHT22;9382;53.242;10.438;2022-09-25T12:40:48;13.80;99.90
18506;DHT22;9382;53.242;10.438;2022-09-25T12:43:21;13.70;99.90
18506;DHT22;9382;53.242;10.438;2022-09-25T12:45:53;13.70;99.90
18506;DHT22;9382;53.242;10.438;2022-09-25T12:48:28;13.70;99.90
18506;DHT22;9382;53.242;10.438;2022-09-25T12:50:59;13.90;99.90
18506;DHT22;9382;53.242;10.438;2022-09-25T12:53:30;14.00;99.90
18506;DHT22;9382;53.242;10.438;2022-09-25T12:56:03;14.10;99.90
18506;DHT22;9382;53.242;10.438;2022-09-25T12:58:41;14.10;99.90
18506;DHT22;9382;53.242;10.438;2022-09-25T13:01:18;14.20;99.90
18506;DHT22;9382;53.242;10.438;2022-09-25T13:03:53;14.10;99.90
18506;DHT22;9382;53.242;10.438;2022-09-25T13:06:30;14.00;99.90
18506;DHT22;9382;53.242;10.438;2022-09-25T13:09:01;13.80;99.90
18506;DHT22;9382;53.242;10.438;2022-09-25T13:11:37;13.80;99.90
18506;DHT22;9382;53.242;10.438;2022-09-25T13:14:26;13.80;99.90
18506;DHT22;9382;53.242;10.438;2022-09-25T13:16:54;13.70;99.90
18506;DHT22;9382;53.242;10.438;2022-09-25T13:19:27;13.70;99.90
18506;DHT22;9382;53.242;10.438;2022-09-25T13:22:05;13.60;99.90
18506;DHT22;9382;53.242;10.438;2022-09-25T13:24:43;13.70;99.90
18506;DHT22;9382;53.242;10.438;2022-09-25T13:27:14;13.80;99.90
18506;DHT22;9382;53.242;10.438;2022-09-25T13:29:51;14.00;99.90
18506;DHT22;9382;53.242;10.438;2022-09-25T13:32:20;14.10;99.90
18506;DHT22;9382;53.242;10.438;2022-09-25T13:34:54;14.20;99.90
18506;DHT22;9382;53.242;10.438;2022-09-25T13:37:26;14.30;99.90
18506;DHT22;9382;53.242;10.438;2022-09-25T13:39:53;14.50;99.90
18506;DHT22;9382;53.242;10.438;2022-09-25T13:42:53;14.70;99.90
18506;DHT22;9382;53.242;10.438;2022-09-25T13:45:39;15.60;99.90
18506;DHT22;9382;53.242;10.438;2022-09-25T13:48:10;16.40;99.90
18506;DHT22;9382;53.242;10.438;2022-09-25T13:50:43;16.90;99.90
18506;DHT22;9382;53.242;10.438;2022-09-25T13:53:27;18.90;99.90
18506;DHT22;9382;53.242;10.438;2022-09-25T13:56:08;21.20;99.90
18506;DHT22;9382;53.242;10.438;2022-09-25T13:59:03;23.20;99.90
18506;DHT22;9382;53.242;10.438;2022-09-25T14:01:35;23.60;99.90
18506;DHT22;9382;53.242;10.438;2022-09-25T14:04:09;22.60;99.90
18506;DHT22;9382;53.242;10.438;2022-09-25T14:06:37;21.50;99.90
18506;DHT22;9382;53.242;10.438;2022-09-25T14:09:08;21.80;99.90
18506;DHT22;9382;53.242;10.438;2022-09-25T14:11:37;23.90;99.90
18506;DHT22;9382;53.242;10.438;2022-09-25T14:14:06;25.40;99.90
18506;DHT22;9382;53.242;10.438;2022-09-25T14:16:40;25.40;99.90
18506;DHT22;9382;53.242;10.438;2022-09-25T14:19:16;26.20;99.90
18506;DHT22;9382;53.242;10.438;2022-09-25T14:21:46;27.60;99.90
18506;DHT22;9382;53.242;10.438;2022-09-25T14:24:18;27.90;99.90
18506;DHT22;9382;53.242;10.438;2022-09-25T14:26:47;27.80;99.90
18506;DHT22;9382;53.242;10.438;2022-09-25T14:29:17;26.70;99.90
18506;DHT22;9382;53.242;10.438;2022-09-25T14:31:52;24.50;99.90
18506;DHT22;9382;53.242;10.438;2022-09-25T14:34:41;22.40;99.90
18506;DHT22;9382;53.242;10.438;2022-09-25T14:37:22;20.80;99.90
18506;DHT22;9382;53.242;10.438;2022-09-25T14:40:00;19.10;99.90
18506;DHT22;9382;53.242;10.438;2022-09-25T14:45:37;17.10;99.90
18506;DHT22;9382;53.242;10.438;2022-09-25T14:48:10;16.60;99.90
18506;DHT22;9382;53.242;10.438;2022-09-25T14:50:43;16.20;99.90
18506;DHT22;9382;53.242;10.438;2022-09-25T14:53:18;15.90;99.90
18506;DHT22;9382;53.242;10.438;2022-09-25T14:55:49;15.80;99.90
18506;DHT22;9382;53.242;10.438;2022-09-25T14:58:19;15.60;99.90
18506;DHT22;9382;53.242;10.438;2022-09-25T15:00:48;15.50;99.90
18506;DHT22;9382;53.242;10.438;2022-09-25T15:03:18;15.50;99.90
18506;DHT22;9382;53.242;10.438;2022-09-25T15:05:48;15.50;99.90
18506;DHT22;9382;53.242;10.438;2022-09-25T15:08:21;15.50;99.90
18506;DHT22;9382;53.242;10.438;2022-09-25T15:10:59;15.60;99.90
18506;DHT22;9382;53.242;10.438;2022-09-25T15:13:26;17.70;99.90
18506;DHT22;9382;53.242;10.438;2022-09-25T15:15:58;21.10;99.90
18506;DHT22;9382;53.242;10.438;2022-09-25T15:18:45;24.00;99.90
18506;DHT22;9382;53.242;10.438;2022-09-25T15:21:19;25.00;99.90
18506;DHT22;9382;53.242;10.438;2022-09-25T15:23:48;25.60;99.90
18506;DHT22;9382;53.242;10.438;2022-09-25T15:26:16;26.30;99.90
18506;DHT22;9382;53.242;10.438;2022-09-25T15:28:44;27.10;99.90
18506;DHT22;9382;53.242;10.438;2022-09-25T15:31:11;27.20;99.90
18506;DHT22;9382;53.242;10.438;2022-09-25T15:33:39;27.20;99.90
18506;DHT22;9382;53.242;10.438;2022-09-25T15:36:15;28.00;99.90
18506;DHT22;9382;53.242;10.438;2022-09-25T15:38:42;28.50;99.90
18506;DHT22;9382;53.242;10.438;2022-09-25T15:41:13;28.70;99.90
18506;DHT22;9382;53.242;10.438;2022-09-25T15:43:40;29.00;99.90
18506;DHT22;9382;53.242;10.438;2022-09-25T15:46:26;29.10;99.90
18506;DHT22;9382;53.242;10.438;2022-09-25T15:48:57;29.30;99.90
18506;DHT22;9382;53.242;10.438;2022-09-25T15:51:27;29.30;99.90
18506;DHT22;9382;53.242;10.438;2022-09-25T15:53:57;28.80;99.90
18506;DHT22;9382;53.242;10.438;2022-09-25T15:56:27;28.40;99.90
18506;DHT22;9382;53.242;10.438;2022-09-25T15:58:57;28.30;99.90
18506;DHT22;9382;53.242;10.438;2022-09-25T16:01:28;27.90;99.90
18506;DHT22;9382;53.242;10.438;2022-09-25T16:04:17;27.20;99.90